createdAt,value
2023-03-08T00:02:45.628Z,4.00
2023-03-08T00:05:50.680Z,2.33
2023-03-08T00:08:57.618Z,3.87
2023-03-08T00:12:01.269Z,5.90
2023-03-08T00:15:05.449Z,10.13
2023-03-08T00:18:09.211Z,4.33
2023-03-08T00:21:17.139Z,4.87
2023-03-08T00:24:20.805Z,6.07
2023-03-08T00:27:24.386Z,5.87
2023-03-08T00:30:28.941Z,4.77
2023-03-08T00:33:33.464Z,3.60
2023-03-08T00:36:38.513Z,5.63
2023-03-08T00:39:42.112Z,5.83
2023-03-08T00:42:45.997Z,3.73
2023-03-08T00:45:52.946Z,5.60
2023-03-08T00:48:57.917Z,8.13
2023-03-08T00:52:02.828Z,8.00
2023-03-08T00:55:07.602Z,4.97
2023-03-08T00:58:11.169Z,7.77
2023-03-08T01:01:18.380Z,5.77
2023-03-08T01:04:22.059Z,6.47
2023-03-08T01:07:28.517Z,4.90
2023-03-08T01:10:32.403Z,4.53
2023-03-08T01:13:37.362Z,5.17
2023-03-08T01:16:42.124Z,9.47
2023-03-08T01:19:45.935Z,3.43
2023-03-08T01:22:50.985Z,5.90
2023-03-08T01:26:01.375Z,5.30
2023-03-08T01:29:05.171Z,3.97
2023-03-08T01:32:10.024Z,7.20
2023-03-08T01:35:14.133Z,5.27
2023-03-08T01:38:19.058Z,4.83
2023-03-08T01:41:25.564Z,4.67
2023-03-08T01:44:30.090Z,4.17
2023-03-08T01:47:36.178Z,5.17
2023-03-08T01:50:41.135Z,5.10
2023-03-08T01:53:47.179Z,4.70
2023-03-08T01:56:55.075Z,5.33
2023-03-08T02:00:06.362Z,5.27
2023-03-08T02:03:13.100Z,3.50
2023-03-08T02:06:19.289Z,5.30
2023-03-08T02:09:25.469Z,3.07
2023-03-08T02:12:29.956Z,5.17
2023-03-08T02:15:33.730Z,3.93
2023-03-08T02:18:37.387Z,4.73
2023-03-08T02:21:41.074Z,3.37
2023-03-08T02:24:46.153Z,4.03
2023-03-08T02:27:50.896Z,3.33
2023-03-08T02:30:55.770Z,6.50
2023-03-08T02:33:59.409Z,3.67
2023-03-08T02:37:03.672Z,6.23
2023-03-08T02:40:12.650Z,3.30
2023-03-08T02:43:16.281Z,5.53
2023-03-08T02:46:19.948Z,4.27
2023-03-08T02:49:23.509Z,4.33
2023-03-08T02:52:27.363Z,6.23
2023-03-08T02:55:36.045Z,5.30
2023-03-08T02:58:39.732Z,4.67
2023-03-08T03:01:43.364Z,6.07
2023-03-08T03:04:47.211Z,7.13
2023-03-08T03:07:50.844Z,5.63
2023-03-08T03:10:55.916Z,6.40
2023-03-08T03:14:01.289Z,8.27
2023-03-08T03:17:04.902Z,9.77
2023-03-08T03:20:11.199Z,8.67
2023-03-08T03:23:14.825Z,14.20
2023-03-08T03:26:23.139Z,11.87
2023-03-08T03:29:26.748Z,14.17
2023-03-08T03:32:30.560Z,11.43
2023-03-08T03:35:34.183Z,12.87
2023-03-08T03:38:38.336Z,13.70
2023-03-08T03:41:43.383Z,13.20
2023-03-08T03:44:47.106Z,12.63
2023-03-08T03:47:50.768Z,13.83
2023-03-08T03:50:58.740Z,14.73
2023-03-08T03:54:02.501Z,14.77
2023-03-08T03:57:07.916Z,13.63
2023-03-08T04:00:13.355Z,13.83
2023-03-08T04:03:17.096Z,12.90
2023-03-08T04:06:23.292Z,15.10
2023-03-08T04:09:26.887Z,15.77
2023-03-08T04:12:31.972Z,15.50
2023-03-08T04:15:35.627Z,12.83
2023-03-08T04:18:39.279Z,13.00
2023-03-08T04:21:42.943Z,15.43
2023-03-08T04:24:46.688Z,12.90
2023-03-08T04:27:51.606Z,12.77
2023-03-08T04:30:55.539Z,18.87
2023-03-08T04:33:59.324Z,14.80
2023-03-08T04:37:02.991Z,20.87
2023-03-08T04:40:09.423Z,16.03
2023-03-08T04:43:14.488Z,16.57
2023-03-08T04:46:20.703Z,18.97
2023-03-08T04:49:25.957Z,15.37
2023-03-08T04:52:29.583Z,14.10
2023-03-08T04:55:33.264Z,18.43
2023-03-08T04:58:39.901Z,16.17
2023-03-08T05:01:43.970Z,15.80
2023-03-08T05:04:47.816Z,20.87
2023-03-08T05:07:51.418Z,20.23
2023-03-08T05:11:00.786Z,14.73
2023-03-08T05:14:06.130Z,18.23
2023-03-08T05:17:10.036Z,15.00
2023-03-08T05:20:14.417Z,21.20
2023-03-08T05:23:18.021Z,17.93
2023-03-08T05:26:21.986Z,16.30
2023-03-08T05:29:27.060Z,17.03
2023-03-08T05:32:30.740Z,17.73
2023-03-08T05:35:34.420Z,19.00
2023-03-08T05:38:38.226Z,19.07
2023-03-08T05:41:41.824Z,17.90
2023-03-08T05:44:46.923Z,16.90
2023-03-08T05:47:50.600Z,17.30
2023-03-08T05:50:55.428Z,16.47
2023-03-08T05:53:59.126Z,19.77
2023-03-08T05:57:02.797Z,21.87
2023-03-08T06:00:10.124Z,19.50
2023-03-08T06:03:14.253Z,22.90
2023-03-08T06:06:19.527Z,23.03
2023-03-08T06:09:23.357Z,18.87
2023-03-08T06:12:27.031Z,22.47
2023-03-08T06:15:32.154Z,19.07
2023-03-08T06:18:39.508Z,19.13
2023-03-08T06:21:43.319Z,21.80
2023-03-08T06:24:49.749Z,18.90
2023-03-08T06:27:53.605Z,19.27
2023-03-08T06:30:59.388Z,20.90
2023-03-08T06:34:03.715Z,19.13
2023-03-08T06:37:07.428Z,21.97
2023-03-08T06:40:13.611Z,21.73
2023-03-08T06:43:17.162Z,22.87
2023-03-08T06:46:22.318Z,21.63
2023-03-08T06:49:26.003Z,24.73
2023-03-08T06:52:34.967Z,23.97
2023-03-08T06:55:40.341Z,21.93
2023-03-08T06:58:44.333Z,19.07
2023-03-08T07:01:49.348Z,21.60
2023-03-08T07:04:52.985Z,19.47
2023-03-08T07:07:56.639Z,19.87
2023-03-08T07:11:00.977Z,17.13
2023-03-08T07:14:04.602Z,19.53
2023-03-08T07:17:09.909Z,19.83
2023-03-08T07:20:16.167Z,20.87
2023-03-08T07:23:19.842Z,19.80
2023-03-08T07:26:23.662Z,22.73
2023-03-08T07:29:27.465Z,18.77
2023-03-08T07:32:32.804Z,17.63
2023-03-08T07:35:38.463Z,18.33
2023-03-08T07:38:43.630Z,17.53
2023-03-08T07:41:47.796Z,14.80
2023-03-08T07:44:51.508Z,19.47
2023-03-08T07:47:56.896Z,17.77
2023-03-08T07:51:06.594Z,15.27
2023-03-08T07:54:12.922Z,31.33
2023-03-08T07:57:17.457Z,19.17
2023-03-08T08:00:22.465Z,18.33
2023-03-08T08:03:27.631Z,18.70
2023-03-08T08:06:31.763Z,19.13
2023-03-08T08:09:37.475Z,19.57
2023-03-08T08:12:41.084Z,18.67
2023-03-08T08:15:44.762Z,21.10
2023-03-08T08:18:52.407Z,18.10
2023-03-08T08:21:55.972Z,20.17
2023-03-08T08:24:59.568Z,17.80
2023-03-08T08:28:03.292Z,18.20
2023-03-08T08:31:09.192Z,16.87
2023-03-08T08:34:14.182Z,17.93
2023-03-08T08:37:18.497Z,18.07
2023-03-08T08:40:22.201Z,17.53
2023-03-08T08:43:25.899Z,14.73
2023-03-08T08:46:31.094Z,15.83
2023-03-08T08:49:36.207Z,14.60
2023-03-08T08:52:41.830Z,14.30
2023-03-08T08:55:46.166Z,15.57
2023-03-08T08:58:49.966Z,17.57
2023-03-08T09:01:53.758Z,13.40
2023-03-08T09:04:58.754Z,14.67
2023-03-08T09:08:03.630Z,14.90
2023-03-08T09:11:10.680Z,15.27
2023-03-08T09:14:14.438Z,13.40
2023-03-08T09:17:18.041Z,15.13
2023-03-08T09:20:23.853Z,13.43
2023-03-08T09:23:27.472Z,15.37
2023-03-08T09:26:32.183Z,19.90
2023-03-08T09:29:37.989Z,15.30
2023-03-08T09:32:42.852Z,13.97
2023-03-08T09:35:57.811Z,14.23
2023-03-08T09:39:01.472Z,14.33
2023-03-08T09:42:08.077Z,12.83
2023-03-08T09:45:30.235Z,19.73
2023-03-08T09:48:35.224Z,23.27
2023-03-08T09:51:48.267Z,28.70
2023-03-08T09:54:53.967Z,25.93
2023-03-08T09:58:01.882Z,23.97
2023-03-08T10:01:25.880Z,27.07
2023-03-08T10:05:11.810Z,28.40
2023-03-08T10:08:25.880Z,24.70
2023-03-08T10:11:37.495Z,34.20
2023-03-08T10:14:49.288Z,35.17
2023-03-08T10:17:59.785Z,33.10
2023-03-08T10:21:04.323Z,33.50
2023-03-08T10:24:17.856Z,33.63
2023-03-08T10:27:26.387Z,32.90
2023-03-08T10:30:36.342Z,32.80
2023-03-08T10:33:40.017Z,26.53
2023-03-08T10:36:53.428Z,27.47
2023-03-08T10:40:02.790Z,28.00
2023-03-08T10:43:08.643Z,33.63
2023-03-08T10:46:17.387Z,31.20
2023-03-08T10:49:26.908Z,33.47
2023-03-08T10:52:31.482Z,29.20
2023-03-08T10:55:45.795Z,31.53
2023-03-08T10:58:49.537Z,26.60
2023-03-08T11:01:56.406Z,28.77
2023-03-08T11:05:01.471Z,24.43
2023-03-08T11:08:05.840Z,23.40
2023-03-08T11:11:14.385Z,20.70
2023-03-08T11:14:18.423Z,18.77
2023-03-08T11:17:29.416Z,15.33
2023-03-08T11:20:41.566Z,13.57
2023-03-08T11:23:52.777Z,12.80
2023-03-08T11:27:18.972Z,13.47
2023-03-08T11:30:40.166Z,12.33
2023-03-08T11:34:36.016Z,13.67
2023-03-08T11:37:48.039Z,13.33
2023-03-08T11:41:03.289Z,14.03
2023-03-08T11:44:38.382Z,12.67
2023-03-08T11:48:17.227Z,11.83
2023-03-08T11:51:31.188Z,16.30
2023-03-08T11:54:56.246Z,12.53
2023-03-08T11:58:11.074Z,14.17
2023-03-08T12:01:25.691Z,11.70
2023-03-08T12:04:40.600Z,10.47
2023-03-08T12:07:55.676Z,12.63
2023-03-08T12:11:06.341Z,9.37
2023-03-08T12:14:19.870Z,8.97
2023-03-08T12:17:33.653Z,7.63
2023-03-08T12:20:44.219Z,8.90
2023-03-08T12:24:03.702Z,11.80
2023-03-08T12:27:13.131Z,9.13
2023-03-08T12:30:34.874Z,8.40
2023-03-08T12:33:40.101Z,10.53
2023-03-08T12:36:45.805Z,9.10
2023-03-08T12:40:00.822Z,11.90
2023-03-08T12:43:12.204Z,8.07
2023-03-08T12:46:15.875Z,12.00
2023-03-08T12:49:29.445Z,11.67
2023-03-08T12:52:35.426Z,11.13
2023-03-08T12:55:39.172Z,8.07
2023-03-08T12:58:52.290Z,10.57
2023-03-08T13:02:23.938Z,8.00
2023-03-08T13:05:35.916Z,8.47
2023-03-08T13:08:52.203Z,10.30
2023-03-08T13:12:20.038Z,8.87
2023-03-08T13:15:27.538Z,8.03
2023-03-08T13:18:31.251Z,7.73
2023-03-08T13:21:48.155Z,8.47
2023-03-08T13:25:00.262Z,11.50
2023-03-08T13:28:08.238Z,9.67
2023-03-08T13:31:18.265Z,7.93
2023-03-08T13:34:30.126Z,11.30
2023-03-08T13:37:35.130Z,8.10
2023-03-08T13:40:42.127Z,9.17
2023-03-08T13:43:45.811Z,8.43
2023-03-08T13:46:52.788Z,8.00
2023-03-08T13:49:58.540Z,7.90
2023-03-08T13:53:09.966Z,8.07
2023-03-08T13:56:25.261Z,9.27
2023-03-08T13:59:29.196Z,7.73
2023-03-08T14:02:33.911Z,8.90
2023-03-08T14:05:45.819Z,8.10
2023-03-08T14:08:52.103Z,8.73
2023-03-08T14:12:01.072Z,6.87
2023-03-08T14:15:07.954Z,11.03
2023-03-08T14:18:23.426Z,6.20
2023-03-08T14:21:29.487Z,10.73
2023-03-08T14:24:37.662Z,7.83
2023-03-08T14:27:45.458Z,9.27
2023-03-08T14:30:49.864Z,9.07
2023-03-08T14:34:03.353Z,23.17
2023-03-08T14:37:19.361Z,11.53
2023-03-08T14:40:30.487Z,8.83
2023-03-08T14:43:34.618Z,9.10
2023-03-08T14:46:38.205Z,9.30
2023-03-08T14:49:41.851Z,9.97
2023-03-08T14:52:49.173Z,9.07
2023-03-08T14:55:54.268Z,10.50
2023-03-08T14:59:03.770Z,10.17
2023-03-08T15:02:13.826Z,9.37
2023-03-08T15:05:28.764Z,8.77
2023-03-08T15:08:33.314Z,10.13
2023-03-08T15:11:38.541Z,10.33
2023-03-08T15:14:42.567Z,13.13
2023-03-08T15:17:46.371Z,7.07
2023-03-08T15:20:52.938Z,7.47
2023-03-08T15:23:58.462Z,7.20
2023-03-08T15:27:03.502Z,8.07
2023-03-08T15:30:15.589Z,8.03
2023-03-08T15:33:19.194Z,8.43
2023-03-08T15:36:22.886Z,6.37
2023-03-08T15:39:26.731Z,8.10
2023-03-08T15:42:31.942Z,6.30
2023-03-08T15:45:35.845Z,10.60
2023-03-08T15:48:39.624Z,9.27
2023-03-08T15:51:44.298Z,8.77
2023-03-08T15:54:50.658Z,8.40
2023-03-08T15:57:55.711Z,6.90
2023-03-08T16:00:59.272Z,7.30
2023-03-08T16:04:02.913Z,6.63
2023-03-08T16:07:06.649Z,8.03
2023-03-08T16:10:14.488Z,6.30
2023-03-08T16:13:21.933Z,5.17
2023-03-08T16:16:35.186Z,6.00
2023-03-08T16:19:48.309Z,7.40
2023-03-08T16:22:51.934Z,7.93
2023-03-08T16:26:14.667Z,7.90
2023-03-08T16:29:21.104Z,5.77
2023-03-08T16:32:24.807Z,5.83
2023-03-08T16:35:28.528Z,8.27
2023-03-08T16:38:32.235Z,13.07
2023-03-08T16:41:36.805Z,9.00
2023-03-08T16:44:42.114Z,7.37
2023-03-08T16:47:46.544Z,7.33
2023-03-08T16:50:55.218Z,6.50
2023-03-08T16:53:58.787Z,9.10
2023-03-08T16:57:17.848Z,8.63
2023-03-08T17:00:27.189Z,9.73
2023-03-08T17:03:30.881Z,8.63
2023-03-08T17:06:35.108Z,7.77
2023-03-08T17:09:40.070Z,7.97
2023-03-08T17:12:43.645Z,7.87
2023-03-08T17:15:48.810Z,9.00
2023-03-08T17:18:53.689Z,12.30
2023-03-08T17:21:57.684Z,6.53
2023-03-08T17:25:01.550Z,7.00
2023-03-08T17:28:06.895Z,8.43
2023-03-08T17:31:16.105Z,6.70
2023-03-08T17:34:21.724Z,9.80
2023-03-08T17:37:25.540Z,8.17
2023-03-08T17:40:29.312Z,8.60
2023-03-08T17:43:33.031Z,9.03
2023-03-08T17:46:38.282Z,7.97
2023-03-08T17:49:41.994Z,11.87
2023-03-08T17:52:45.634Z,7.63
2023-03-08T17:55:49.344Z,9.50
2023-03-08T17:58:53.922Z,10.33
2023-03-08T18:01:58.972Z,8.87
2023-03-08T18:05:02.796Z,6.63
2023-03-08T18:08:06.519Z,7.00
2023-03-08T18:11:10.187Z,10.07
2023-03-08T18:14:16.283Z,10.17
2023-03-08T18:17:22.500Z,8.93
2023-03-08T18:20:26.246Z,12.33
2023-03-08T18:23:31.761Z,10.27
2023-03-08T18:26:35.289Z,10.37
2023-03-08T18:29:38.950Z,10.53
2023-03-08T18:32:43.970Z,14.37
2023-03-08T18:35:58.379Z,17.77
2023-03-08T18:39:04.751Z,12.17
2023-03-08T18:42:08.691Z,16.60
2023-03-08T18:45:22.998Z,14.73
2023-03-08T18:48:28.122Z,15.33
2023-03-08T18:51:33.474Z,17.63
2023-03-08T18:54:38.557Z,15.27
2023-03-08T18:57:42.398Z,16.83
2023-03-08T19:00:46.310Z,20.23
2023-03-08T19:03:51.903Z,18.57
2023-03-08T19:06:55.668Z,16.17
2023-03-08T19:10:01.392Z,14.60
2023-03-08T19:13:05.111Z,17.70
2023-03-08T19:16:19.831Z,10.77
2023-03-08T19:19:25.002Z,12.03
2023-03-08T19:22:28.564Z,12.63
2023-03-08T19:25:33.140Z,12.17
2023-03-08T19:28:36.758Z,13.30
2023-03-08T19:31:46.914Z,10.57
2023-03-08T19:34:52.254Z,14.37
2023-03-08T19:37:55.882Z,11.50
2023-03-08T19:40:59.529Z,13.27
2023-03-08T19:44:06.956Z,13.03
2023-03-08T19:47:11.100Z,11.97
2023-03-08T19:50:16.161Z,13.97
2023-03-08T19:53:19.786Z,10.90
2023-03-08T19:56:24.427Z,13.93
2023-03-08T19:59:28.704Z,14.93
2023-03-08T20:02:32.277Z,11.50
2023-03-08T20:05:42.142Z,13.90
2023-03-08T20:08:45.772Z,15.23
2023-03-08T20:11:50.914Z,14.10
2023-03-08T20:14:54.836Z,13.00
2023-03-08T20:17:58.447Z,15.17
2023-03-08T20:21:04.120Z,11.40
2023-03-08T20:24:08.602Z,15.27
2023-03-08T20:27:12.316Z,14.87
2023-03-08T20:30:16.763Z,14.93
2023-03-08T20:33:20.790Z,13.33
2023-03-08T20:36:26.290Z,16.77
2023-03-08T20:39:30.027Z,16.47
2023-03-08T20:42:34.860Z,14.37
2023-03-08T20:45:41.324Z,15.17
2023-03-08T20:48:46.942Z,15.83
2023-03-08T20:51:52.122Z,17.20
2023-03-08T20:54:57.085Z,15.03
2023-03-08T20:58:00.764Z,17.80
2023-03-08T21:01:12.656Z,16.37
2023-03-08T21:04:16.960Z,16.10
2023-03-08T21:07:22.177Z,16.80
2023-03-08T21:10:25.971Z,16.57
2023-03-08T21:13:29.673Z,15.10
2023-03-08T21:16:33.963Z,14.13
2023-03-08T21:19:38.048Z,16.77
2023-03-08T21:22:42.991Z,15.70
2023-03-08T21:25:47.371Z,18.70
2023-03-08T21:28:51.293Z,18.43
2023-03-08T21:31:55.373Z,16.53
2023-03-08T21:34:59.153Z,18.53
2023-03-08T21:38:04.227Z,17.73
2023-03-08T21:41:16.302Z,20.07
2023-03-08T21:44:22.449Z,17.57
2023-03-08T21:47:26.213Z,18.70
2023-03-08T21:50:29.972Z,19.67
2023-03-08T21:53:36.597Z,19.87
2023-03-08T21:56:40.501Z,22.73
2023-03-08T21:59:44.194Z,20.50
2023-03-08T22:02:54.531Z,18.27
2023-03-08T22:05:59.357Z,22.00
2023-03-08T22:09:05.043Z,16.53
2023-03-08T22:12:09.178Z,17.03
2023-03-08T22:15:24.721Z,23.20
2023-03-08T22:18:28.547Z,17.27
2023-03-08T22:21:33.526Z,21.83
2023-03-08T22:24:38.825Z,18.63
2023-03-08T22:27:42.512Z,18.83
2023-03-08T22:30:46.170Z,17.13
2023-03-08T22:33:50.180Z,20.13
2023-03-08T22:36:54.666Z,19.33
2023-03-08T22:40:00.263Z,18.40
2023-03-08T22:43:03.782Z,19.90
2023-03-08T22:46:10.037Z,16.67
2023-03-08T22:49:15.480Z,17.60
2023-03-08T22:52:21.159Z,18.63
2023-03-08T22:55:26.122Z,18.43
2023-03-08T22:58:29.739Z,18.30
2023-03-08T23:01:33.755Z,19.00
2023-03-08T23:04:37.439Z,19.17
2023-03-08T23:07:41.129Z,19.40
2023-03-08T23:10:46.110Z,19.00
2023-03-08T23:13:49.738Z,18.03
2023-03-08T23:16:53.503Z,20.33
2023-03-08T23:19:58.343Z,20.20
2023-03-08T23:23:01.922Z,18.50
2023-03-08T23:26:10.476Z,21.60
2023-03-08T23:29:16.080Z,21.23
2023-03-08T23:32:19.762Z,20.57
2023-03-08T23:35:23.567Z,22.17
2023-03-08T23:38:27.107Z,21.47
2023-03-08T23:41:33.084Z,21.10
2023-03-08T23:44:36.661Z,20.63
2023-03-08T23:47:40.712Z,19.03
2023-03-08T23:50:44.271Z,21.57
2023-03-08T23:53:52.271Z,19.80
2023-03-08T23:56:57.239Z,20.10
